sensor_id;sensor_type;location;lat;lon;timestamp;pressure;altitude;pressure_sealevel;temperature;humidity
4449;BME280;2237;51.870;6.160;2022-10-31T00:00:23;101918.25;;;16.64;100.00
4449;BME280;2237;51.870;6.160;2022-10-31T00:02:49;101921.88;;;16.60;100.00
4449;BME280;2237;51.870;6.160;2022-10-31T00:05:15;101921.03;;;16.60;100.00
4449;BME280;2237;51.870;6.160;2022-10-31T00:07:42;101925.53;;;16.56;100.00
4449;BME280;2237;51.870;6.160;2022-10-31T00:10:08;101930.03;;;16.51;100.00
4449;BME280;2237;51.870;6.160;2022-10-31T00:12:35;101932.78;;;16.47;100.00
4449;BME280;2237;51.870;6.160;2022-10-31T00:15:01;101935.50;;;16.44;100.00
4449;BME280;2237;51.870;6.160;2022-10-31T00:17:27;101934.78;;;16.38;100.00
4449;BME280;2237;51.870;6.160;2022-10-31T00:19:54;101930.63;;;16.30;100.00
4449;BME280;2237;51.870;6.160;2022-10-31T00:22:20;101943.81;;;16.28;100.00
4449;BME280;2237;51.870;6.160;2022-10-31T00:24:46;101946.56;;;16.24;100.00
4449;BME280;2237;51.870;6.160;2022-10-31T00:27:13;101950.25;;;16.18;100.00
4449;BME280;2237;51.870;6.160;2022-10-31T00:29:39;101937.19;;;16.15;100.00
4449;BME280;2237;51.870;6.160;2022-10-31T00:32:05;101936.38;;;16.13;100.00
4449;BME280;2237;51.870;6.160;2022-10-31T00:34:32;101937.34;;;16.09;100.00
4449;BME280;2237;51.870;6.160;2022-10-31T00:36:58;101932.19;;;16.06;100.00
4449;BME280;2237;51.870;6.160;2022-10-31T00:39:24;101940.13;;;16.03;100.00
4449;BME280;2237;51.870;6.160;2022-10-31T00:41:51;101941.16;;;15.98;100.00
4449;BME280;2237;51.870;6.160;2022-10-31T00:44:17;101945.63;;;15.96;100.00
4449;BME280;2237;51.870;6.160;2022-10-31T00:46:43;101945.78;;;15.88;100.00
4449;BME280;2237;51.870;6.160;2022-10-31T00:49:10;101944.97;;;15.86;100.00
4449;BME280;2237;51.870;6.160;2022-10-31T00:51:36;101938.06;;;15.82;100.00
4449;BME280;2237;51.870;6.160;2022-10-31T00:54:03;101928.56;;;15.78;100.00
4449;BME280;2237;51.870;6.160;2022-10-31T00:56:29;101933.94;;;15.73;100.00
4449;BME280;2237;51.870;6.160;2022-10-31T00:58:55;101941.00;;;15.71;100.00
4449;BME280;2237;51.870;6.160;2022-10-31T01:01:22;101947.22;;;15.67;100.00
4449;BME280;2237;51.870;6.160;2022-10-31T01:03:48;101941.19;;;15.64;100.00
4449;BME280;2237;51.870;6.160;2022-10-31T01:06:15;101942.09;;;15.63;100.00
4449;BME280;2237;51.870;6.160;2022-10-31T01:08:42;101929.97;;;15.57;100.00
4449;BME280;2237;51.870;6.160;2022-10-31T01:11:12;101942.25;;;15.57;100.00
4449;BME280;2237;51.870;6.160;2022-10-31T01:13:39;101932.69;;;15.54;100.00
4449;BME280;2237;51.870;6.160;2022-10-31T01:16:07;101925.66;;;15.55;100.00
4449;BME280;2237;51.870;6.160;2022-10-31T01:18:34;101935.38;;;15.51;100.00
4449;BME280;2237;51.870;6.160;2022-10-31T01:21:12;101931.88;;;15.51;100.00
4449;BME280;2237;51.870;6.160;2022-10-31T01:23:39;101928.38;;;15.52;100.00
4449;BME280;2237;51.870;6.160;2022-10-31T01:26:14;101935.31;;;15.53;100.00
4449;BME280;2237;51.870;6.160;2022-10-31T01:28:47;101928.44;;;15.49;100.00
4449;BME280;2237;51.870;6.160;2022-10-31T01:31:14;101927.50;;;15.51;100.00
4449;BME280;2237;51.870;6.160;2022-10-31T01:33:41;101927.56;;;15.48;100.00
4449;BME280;2237;51.870;6.160;2022-10-31T01:36:17;101945.06;;;15.49;100.00
4449;BME280;2237;51.870;6.160;2022-10-31T01:38:45;101944.22;;;15.47;100.00
4449;BME280;2237;51.870;6.160;2022-10-31T01:41:15;101938.13;;;15.47;100.00
4449;BME280;2237;51.870;6.160;2022-10-31T01:46:19;101939.00;;;15.44;100.00
4449;BME280;2237;51.870;6.160;2022-10-31T01:48:48;101938.25;;;15.41;100.00
4449;BME280;2237;51.870;6.160;2022-10-31T01:51:16;101943.44;;;15.42;100.00
4449;BME280;2237;51.870;6.160;2022-10-31T01:53:44;101938.25;;;15.41;100.00
4449;BME280;2237;51.870;6.160;2022-10-31T01:56:13;101923.47;;;15.37;100.00
4449;BME280;2237;51.870;6.160;2022-10-31T01:58:41;101908.72;;;15.31;100.00
4449;BME280;2237;51.870;6.160;2022-10-31T02:01:08;101909.69;;;15.27;100.00
4449;BME280;2237;51.870;6.160;2022-10-31T02:03:35;101914.91;;;15.28;100.00
4449;BME280;2237;51.870;6.160;2022-10-31T02:06:03;101911.38;;;15.29;100.00
4449;BME280;2237;51.870;6.160;2022-10-31T02:08:33;101932.44;;;15.26;100.00
4449;BME280;2237;51.870;6.160;2022-10-31T02:11:01;101942.03;;;15.29;100.00
4449;BME280;2237;51.870;6.160;2022-10-31T02:13:28;101925.34;;;15.32;100.00
4449;BME280;2237;51.870;6.160;2022-10-31T02:15:57;101935.78;;;15.35;100.00
4449;BME280;2237;51.870;6.160;2022-10-31T02:18:26;101932.22;;;15.36;100.00
4449;BME280;2237;51.870;6.160;2022-10-31T02:21:07;101927.78;;;15.39;100.00
4449;BME280;2237;51.870;6.160;2022-10-31T02:23:51;101939.13;;;15.40;100.00
4449;BME280;2237;51.870;6.160;2022-10-31T02:29:35;101941.63;;;15.44;100.00
4449;BME280;2237;51.870;6.160;2022-10-31T02:32:20;101939.94;;;15.42;100.00
4449;BME280;2237;51.870;6.160;2022-10-31T02:40:26;101946.13;;;15.41;100.00
4449;BME280;2237;51.870;6.160;2022-10-31T02:48:15;101925.19;;;15.38;100.00
4449;BME280;2237;51.870;6.160;2022-10-31T02:50:50;101923.53;;;15.34;100.00
4449;BME280;2237;51.870;6.160;2022-10-31T02:53:18;101922.72;;;15.32;100.00
4449;BME280;2237;51.870;6.160;2022-10-31T02:55:57;101923.59;;;15.31;100.00
4449;BME280;2237;51.870;6.160;2022-10-31T02:58:26;101921.06;;;15.27;100.00
4449;BME280;2237;51.870;6.160;2022-10-31T03:06:33;101927.44;;;15.17;100.00
4449;BME280;2237;51.870;6.160;2022-10-31T03:11:57;101922.47;;;15.05;100.00
4449;BME280;2237;51.870;6.160;2022-10-31T03:14:56;101920.75;;;15.04;100.00
4449;BME280;2237;51.870;6.160;2022-10-31T03:17:36;101918.25;;;15.00;100.00
4449;BME280;2237;51.870;6.160;2022-10-31T03:20:04;101923.56;;;14.97;100.00
4449;BME280;2237;51.870;6.160;2022-10-31T03:22:33;101923.56;;;14.95;100.00
4449;BME280;2237;51.870;6.160;2022-10-31T03:25:02;101915.78;;;14.92;100.00
4449;BME280;2237;51.870;6.160;2022-10-31T03:27:33;101921.94;;;14.90;100.00
4449;BME280;2237;51.870;6.160;2022-10-31T03:30:04;101923.72;;;14.89;100.00
4449;BME280;2237;51.870;6.160;2022-10-31T03:32:38;101925.56;;;14.86;100.00
4449;BME280;2237;51.870;6.160;2022-10-31T03:35:08;101930.97;;;14.78;100.00
4449;BME280;2237;51.870;6.160;2022-10-31T03:37:37;101931.88;;;14.77;100.00
4449;BME280;2237;51.870;6.160;2022-10-31T03:40:07;101936.25;;;14.77;100.00
4449;BME280;2237;51.870;6.160;2022-10-31T03:42:38;101929.31;;;14.74;100.00
4449;BME280;2237;51.870;6.160;2022-10-31T03:45:13;101935.38;;;14.76;100.00
4449;BME280;2237;51.870;6.160;2022-10-31T03:47:41;101932.00;;;14.71;100.00
4449;BME280;2237;51.870;6.160;2022-10-31T03:50:10;101938.03;;;14.75;100.00
4449;BME280;2237;51.870;6.160;2022-10-31T03:53:05;101936.25;;;14.75;100.00
4449;BME280;2237;51.870;6.160;2022-10-31T03:55:52;101939.81;;;14.74;100.00
4449;BME280;2237;51.870;6.160;2022-10-31T03:58:34;101945.13;;;14.69;100.00
4449;BME280;2237;51.870;6.160;2022-10-31T04:01:05;101934.72;;;14.66;100.00
4449;BME280;2237;51.870;6.160;2022-10-31T04:03:35;101939.22;;;14.60;100.00
4449;BME280;2237;51.870;6.160;2022-10-31T04:06:06;101934.03;;;14.57;100.00
4449;BME280;2237;51.870;6.160;2022-10-31T04:08:39;101932.31;;;14.56;100.00
4449;BME280;2237;51.870;6.160;2022-10-31T04:11:07;101929.81;;;14.50;100.00
4449;BME280;2237;51.870;6.160;2022-10-31T04:13:37;101933.34;;;14.49;100.00
4449;BME280;2237;51.870;6.160;2022-10-31T04:16:06;101929.78;;;14.51;100.00
4449;BME280;2237;51.870;6.160;2022-10-31T04:18:40;101935.97;;;14.49;100.00
4449;BME280;2237;51.870;6.160;2022-10-31T04:21:07;101942.06;;;14.49;100.00
4449;BME280;2237;51.870;6.160;2022-10-31T04:23:35;101935.13;;;14.47;100.00
4449;BME280;2237;51.870;6.160;2022-10-31T04:26:02;101937.88;;;14.42;100.00
4449;BME280;2237;51.870;6.160;2022-10-31T04:28:29;101926.59;;;14.37;100.00
4449;BME280;2237;51.870;6.160;2022-10-31T04:30:55;101929.25;;;14.36;100.00
4449;BME280;2237;51.870;6.160;2022-10-31T04:33:21;101931.03;;;14.34;100.00
4449;BME280;2237;51.870;6.160;2022-10-31T04:35:48;101928.38;;;14.35;100.00
4449;BME280;2237;51.870;6.160;2022-10-31T04:38:14;101929.28;;;14.34;100.00
4449;BME280;2237;51.870;6.160;2022-10-31T04:40:40;101922.22;;;14.38;100.00
4449;BME280;2237;51.870;6.160;2022-10-31T04:43:07;101920.47;;;14.37;100.00
4449;BME280;2237;51.870;6.160;2022-10-31T04:45:33;101921.41;;;14.34;100.00
4449;BME280;2237;51.870;6.160;2022-10-31T04:48:00;101922.28;;;14.35;100.00
4449;BME280;2237;51.870;6.160;2022-10-31T04:50:27;101915.28;;;14.35;100.00
4449;BME280;2237;51.870;6.160;2022-10-31T04:52:53;101922.22;;;14.38;100.00
4449;BME280;2237;51.870;6.160;2022-10-31T04:55:19;101919.59;;;14.38;100.00
4449;BME280;2237;51.870;6.160;2022-10-31T04:57:47;101920.41;;;14.40;100.00
4449;BME280;2237;51.870;6.160;2022-10-31T05:00:17;101920.41;;;14.40;100.00
4449;BME280;2237;51.870;6.160;2022-10-31T05:02:45;101916.09;;;14.37;100.00
4449;BME280;2237;51.870;6.160;2022-10-31T05:05:13;101923.16;;;14.34;100.00
4449;BME280;2237;51.870;6.160;2022-10-31T05:07:44;101910.06;;;14.34;100.00
4449;BME280;2237;51.870;6.160;2022-10-31T05:10:11;101912.63;;;14.37;100.00
4449;BME280;2237;51.870;6.160;2022-10-31T05:12:45;101903.97;;;14.32;100.00
4449;BME280;2237;51.870;6.160;2022-10-31T05:15:12;101900.50;;;14.33;100.00
4449;BME280;2237;51.870;6.160;2022-10-31T05:17:39;101898.75;;;14.33;100.00
4449;BME280;2237;51.870;6.160;2022-10-31T05:20:05;101894.28;;;14.37;100.00
4449;BME280;2237;51.870;6.160;2022-10-31T05:22:32;101908.19;;;14.40;100.00
4449;BME280;2237;51.870;6.160;2022-10-31T05:24:58;101899.44;;;14.40;100.00
4449;BME280;2237;51.870;6.160;2022-10-31T05:27:25;101898.63;;;14.39;100.00
4449;BME280;2237;51.870;6.160;2022-10-31T05:29:52;101890.81;;;14.35;100.00
4449;BME280;2237;51.870;6.160;2022-10-31T05:32:18;101897.88;;;14.33;100.00
4449;BME280;2237;51.870;6.160;2022-10-31T05:34:45;101900.53;;;14.30;100.00
4449;BME280;2237;51.870;6.160;2022-10-31T05:37:11;101908.38;;;14.30;100.00
4449;BME280;2237;51.870;6.160;2022-10-31T05:39:37;101899.75;;;14.25;100.00
4449;BME280;2237;51.870;6.160;2022-10-31T05:42:04;101912.78;;;14.28;100.00
4449;BME280;2237;51.870;6.160;2022-10-31T05:44:30;101908.44;;;14.25;100.00
4449;BME280;2237;51.870;6.160;2022-10-31T05:46:56;101911.94;;;14.26;100.00
4449;BME280;2237;51.870;6.160;2022-10-31T05:49:23;101907.69;;;14.22;100.00
4449;BME280;2237;51.870;6.160;2022-10-31T05:51:49;101905.06;;;14.22;100.00
4449;BME280;2237;51.870;6.160;2022-10-31T05:54:16;101904.19;;;14.20;100.00
4449;BME280;2237;51.870;6.160;2022-10-31T05:56:42;101905.06;;;14.20;100.00
4449;BME280;2237;51.870;6.160;2022-10-31T05:59:08;101903.38;;;14.18;100.00
4449;BME280;2237;51.870;6.160;2022-10-31T06:01:35;101906.00;;;14.19;100.00
4449;BME280;2237;51.870;6.160;2022-10-31T06:04:01;101902.50;;;14.19;100.00
4449;BME280;2237;51.870;6.160;2022-10-31T06:06:27;101898.97;;;14.20;100.00
4449;BME280;2237;51.870;6.160;2022-10-31T06:08:54;101903.31;;;14.21;100.00
4449;BME280;2237;51.870;6.160;2022-10-31T06:11:20;101902.44;;;14.22;100.00
4449;BME280;2237;51.870;6.160;2022-10-31T06:13:46;101899.88;;;14.19;100.00
4449;BME280;2237;51.870;6.160;2022-10-31T06:16:13;101898.19;;;14.14;100.00
4449;BME280;2237;51.870;6.160;2022-10-31T06:18:39;101903.44;;;14.16;100.00
4449;BME280;2237;51.870;6.160;2022-10-31T06:21:05;101901.69;;;14.13;100.00
4449;BME280;2237;51.870;6.160;2022-10-31T06:23:32;101897.38;;;14.11;100.00
4449;BME280;2237;51.870;6.160;2022-10-31T06:25:58;101899.19;;;14.09;100.00
4449;BME280;2237;51.870;6.160;2022-10-31T06:28:24;101901.84;;;14.07;100.00
4449;BME280;2237;51.870;6.160;2022-10-31T06:30:51;101914.09;;;14.05;100.00
4449;BME280;2237;51.870;6.160;2022-10-31T06:33:17;101902.78;;;14.03;100.00
4449;BME280;2237;51.870;6.160;2022-10-31T06:35:47;101911.47;;;14.05;100.00
4449;BME280;2237;51.870;6.160;2022-10-31T06:38:14;101901.84;;;14.07;100.00
4449;BME280;2237;51.870;6.160;2022-10-31T06:40:40;101906.22;;;14.07;100.00
4449;BME280;2237;51.870;6.160;2022-10-31T06:43:07;101903.56;;;14.08;100.00
4449;BME280;2237;51.870;6.160;2022-10-31T06:45:33;101907.03;;;14.09;100.00
4449;BME280;2237;51.870;6.160;2022-10-31T06:48:00;101908.78;;;14.10;100.00
4449;BME280;2237;51.870;6.160;2022-10-31T06:50:43;101906.22;;;14.07;100.00
4449;BME280;2237;51.870;6.160;2022-10-31T06:53:09;101901.84;;;14.07;100.00
4449;BME280;2237;51.870;6.160;2022-10-31T06:55:41;101898.38;;;14.07;100.00
4449;BME280;2237;51.870;6.160;2022-10-31T06:58:10;101895.63;;;14.11;100.00
4449;BME280;2237;51.870;6.160;2022-10-31T07:00:36;101900.81;;;14.14;100.00
4449;BME280;2237;51.870;6.160;2022-10-31T07:03:06;101898.94;;;14.21;100.00
4449;BME280;2237;51.870;6.160;2022-10-31T07:05:32;101898.84;;;14.26;100.00
4449;BME280;2237;51.870;6.160;2022-10-31T07:08:02;101908.38;;;14.30;100.00
4449;BME280;2237;51.870;6.160;2022-10-31T07:10:30;101897.91;;;14.30;100.00
4449;BME280;2237;51.870;6.160;2022-10-31T07:13:06;101903.09;;;14.33;100.00
4449;BME280;2237;51.870;6.160;2022-10-31T07:15:34;101904.88;;;14.31;100.00
4449;BME280;2237;51.870;6.160;2022-10-31T07:18:03;101911.00;;;14.30;100.00
4449;BME280;2237;51.870;6.160;2022-10-31T07:20:30;101916.09;;;14.37;100.00
4449;BME280;2237;51.870;6.160;2022-10-31T07:22:57;101921.16;;;14.46;100.00
4449;BME280;2237;51.870;6.160;2022-10-31T07:25:24;101920.97;;;14.55;100.00
4449;BME280;2237;51.870;6.160;2022-10-31T07:27:50;101926.09;;;14.60;100.00
4449;BME280;2237;51.870;6.160;2022-10-31T07:30:17;101928.66;;;14.63;100.00
4449;BME280;2237;51.870;6.160;2022-10-31T07:32:46;101919.91;;;14.64;100.00
4449;BME280;2237;51.870;6.160;2022-10-31T07:35:20;101917.34;;;14.62;100.00
4449;BME280;2237;51.870;6.160;2022-10-31T07:37:48;101912.09;;;14.62;100.00
4449;BME280;2237;51.870;6.160;2022-10-31T07:40:15;101918.22;;;14.61;100.00
4449;BME280;2237;51.870;6.160;2022-10-31T07:42:43;101913.72;;;14.66;100.00
4449;BME280;2237;51.870;6.160;2022-10-31T07:45:12;101914.41;;;14.76;100.00
4449;BME280;2237;51.870;6.160;2022-10-31T07:47:47;101914.28;;;14.82;100.00
4449;BME280;2237;51.870;6.160;2022-10-31T07:50:16;101913.41;;;14.82;100.00
4449;BME280;2237;51.870;6.160;2022-10-31T07:52:43;101914.28;;;14.82;100.00
4449;BME280;2237;51.870;6.160;2022-10-31T07:55:10;101916.03;;;14.80;100.00
4449;BME280;2237;51.870;6.160;2022-10-31T07:57:37;101913.41;;;14.80;100.00
4449;BME280;2237;51.870;6.160;2022-10-31T08:00:08;101909.16;;;14.76;100.00
4449;BME280;2237;51.870;6.160;2022-10-31T08:02:35;101917.78;;;14.81;100.00
4449;BME280;2237;51.870;6.160;2022-10-31T08:05:02;101919.41;;;14.87;100.00
4449;BME280;2237;51.870;6.160;2022-10-31T08:07:28;101926.31;;;14.89;100.00
4449;BME280;2237;51.870;6.160;2022-10-31T08:09:55;101924.41;;;14.97;100.00
4449;BME280;2237;51.870;6.160;2022-10-31T08:12:22;101923.34;;;15.06;100.00
4449;BME280;2237;51.870;6.160;2022-10-31T08:14:48;101915.34;;;15.10;100.00
4449;BME280;2237;51.870;6.160;2022-10-31T08:17:16;101921.31;;;15.17;100.00
4449;BME280;2237;51.870;6.160;2022-10-31T08:19:42;101919.44;;;15.22;100.00
4449;BME280;2237;51.870;6.160;2022-10-31T08:22:08;101928.94;;;15.27;100.00
4449;BME280;2237;51.870;6.160;2022-10-31T08:24:35;101927.91;;;15.33;100.00
4449;BME280;2237;51.870;6.160;2022-10-31T08:27:01;101926.97;;;15.36;100.00
4449;BME280;2237;51.870;6.160;2022-10-31T08:29:27;101923.38;;;15.40;100.00
4449;BME280;2237;51.870;6.160;2022-10-31T08:31:54;101923.25;;;15.46;100.00
4449;BME280;2237;51.870;6.160;2022-10-31T08:34:20;101922.19;;;15.54;100.00
4449;BME280;2237;51.870;6.160;2022-10-31T08:36:46;101923.84;;;15.58;100.00
4449;BME280;2237;51.870;6.160;2022-10-31T08:39:13;101930.78;;;15.61;100.00
4449;BME280;2237;51.870;6.160;2022-10-31T08:41:39;101917.59;;;15.62;100.00
4449;BME280;2237;51.870;6.160;2022-10-31T08:44:05;101915.69;;;15.67;100.00
4449;BME280;2237;51.870;6.160;2022-10-31T08:46:32;101911.22;;;15.71;100.00
4449;BME280;2237;51.870;6.160;2022-10-31T08:48:58;101916.31;;;15.78;100.00
4449;BME280;2237;51.870;6.160;2022-10-31T08:51:25;101921.50;;;15.80;100.00
4449;BME280;2237;51.870;6.160;2022-10-31T08:53:51;101914.28;;;15.88;100.00
4449;BME280;2237;51.870;6.160;2022-10-31T08:56:18;101922.84;;;15.96;100.00
4449;BME280;2237;51.870;6.160;2022-10-31T08:58:44;101912.19;;;16.01;100.00
4449;BME280;2237;51.870;6.160;2022-10-31T09:01:10;101911.00;;;16.11;100.00
4449;BME280;2237;51.870;6.160;2022-10-31T09:03:37;101904.53;;;16.22;100.00
4449;BME280;2237;51.870;6.160;2022-10-31T09:06:03;101897.34;;;16.30;100.00
4449;BME280;2237;51.870;6.160;2022-10-31T09:08:35;101892.72;;;16.37;100.00
4449;BME280;2237;51.870;6.160;2022-10-31T09:11:02;101892.44;;;16.48;100.00
4449;BME280;2237;51.870;6.160;2022-10-31T09:13:29;101893.91;;;16.58;100.00
4449;BME280;2237;51.870;6.160;2022-10-31T09:15:56;101891.81;;;16.69;100.00
4449;BME280;2237;51.870;6.160;2022-10-31T09:18:25;101887.28;;;16.74;100.00
4449;BME280;2237;51.870;6.160;2022-10-31T09:20:54;101881.94;;;16.77;100.00
4449;BME280;2237;51.870;6.160;2022-10-31T09:23:23;101871.44;;;16.75;100.00
4449;BME280;2237;51.870;6.160;2022-10-31T09:25:51;101871.31;;;16.80;100.00
4449;BME280;2237;51.870;6.160;2022-10-31T09:28:20;101879.75;;;16.89;100.00
4449;BME280;2237;51.870;6.160;2022-10-31T09:30:48;101886.38;;;17.03;100.00
4449;BME280;2237;51.870;6.160;2022-10-31T09:33:15;101887.88;;;17.10;100.00
4449;BME280;2237;51.870;6.160;2022-10-31T09:35:42;101885.41;;;17.05;100.00
4449;BME280;2237;51.870;6.160;2022-10-31T09:38:11;101883.44;;;17.12;100.00
4449;BME280;2237;51.870;6.160;2022-10-31T09:40:43;101865.88;;;17.12;100.00
4449;BME280;2237;51.870;6.160;2022-10-31T09:51:43;101840.47;;;17.36;100.00
4449;BME280;2237;51.870;6.160;2022-10-31T09:54:22;101834.22;;;17.40;100.00
4449;BME280;2237;51.870;6.160;2022-10-31T09:56:52;101837.59;;;17.43;100.00
4449;BME280;2237;51.870;6.160;2022-10-31T09:59:30;101842.75;;;17.46;100.00
4449;BME280;2237;51.870;6.160;2022-10-31T10:04:54;101852.53;;;17.69;100.00
4449;BME280;2237;51.870;6.160;2022-10-31T10:10:13;101827.13;;;18.15;100.00
4449;BME280;2237;51.870;6.160;2022-10-31T10:15:23;101827.44;;;18.29;100.00
4449;BME280;2237;51.870;6.160;2022-10-31T10:21:22;101820.63;;;18.23;100.00
4449;BME280;2237;51.870;6.160;2022-10-31T10:26:50;101819.25;;;18.36;100.00
4449;BME280;2237;51.870;6.160;2022-10-31T10:32:43;101819.16;;;18.39;100.00
4449;BME280;2237;51.870;6.160;2022-10-31T10:35:24;101812.78;;;18.45;100.00
4449;BME280;2237;51.870;6.160;2022-10-31T10:37:57;101804.56;;;18.52;100.00
4449;BME280;2237;51.870;6.160;2022-10-31T10:40:27;101803.34;;;18.61;100.00
4449;BME280;2237;51.870;6.160;2022-10-31T10:45:50;101803.72;;;18.74;100.00
4449;BME280;2237;51.870;6.160;2022-10-31T10:48:51;101799.31;;;18.74;100.00
4449;BME280;2237;51.870;6.160;2022-10-31T10:51:40;101798.81;;;18.86;100.00
4449;BME280;2237;51.870;6.160;2022-10-31T10:59:48;101772.84;;;19.38;100.00
4449;BME280;2237;51.870;6.160;2022-10-31T11:02:18;101759.03;;;19.51;100.00
4449;BME280;2237;51.870;6.160;2022-10-31T11:04:48;101746.22;;;19.42;100.00
4449;BME280;2237;51.870;6.160;2022-10-31T11:07:18;101747.75;;;19.48;100.00
4449;BME280;2237;51.870;6.160;2022-10-31T11:09:44;101724.81;;;19.48;100.00
4449;BME280;2237;51.870;6.160;2022-10-31T11:12:24;101728.06;;;19.55;100.00
4449;BME280;2237;51.870;6.160;2022-10-31T11:14:56;101726.13;;;19.58;100.00
4449;BME280;2237;51.870;6.160;2022-10-31T11:17:32;101707.38;;;19.64;100.00
4449;BME280;2237;51.870;6.160;2022-10-31T11:22:45;101698.28;;;19.51;100.00
4449;BME280;2237;51.870;6.160;2022-10-31T11:25:23;101689.56;;;19.49;100.00
4449;BME280;2237;51.870;6.160;2022-10-31T11:28:01;101680.78;;;19.49;100.00
4449;BME280;2237;51.870;6.160;2022-10-31T11:30:28;101688.16;;;19.61;100.00
4449;BME280;2237;51.870;6.160;2022-10-31T11:32:56;101687.50;;;19.74;100.00
4449;BME280;2237;51.870;6.160;2022-10-31T11:35:24;101689.78;;;20.01;100.00
4449;BME280;2237;51.870;6.160;2022-10-31T11:37:53;101684.53;;;20.18;98.84
4449;BME280;2237;51.870;6.160;2022-10-31T11:40:22;101692.06;;;20.27;97.33
4449;BME280;2237;51.870;6.160;2022-10-31T11:42:52;101688.97;;;20.36;96.50
4449;BME280;2237;51.870;6.160;2022-10-31T11:47:52;101687.38;;;20.32;92.69
4449;BME280;2237;51.870;6.160;2022-10-31T11:50:35;101676.47;;;20.57;91.39
4449;BME280;2237;51.870;6.160;2022-10-31T11:53:03;101669.75;;;20.67;90.71
4449;BME280;2237;51.870;6.160;2022-10-31T11:55:36;101672.94;;;20.91;90.03
4449;BME280;2237;51.870;6.160;2022-10-31T11:58:03;101670.75;;;20.99;88.54
4449;BME280;2237;51.870;6.160;2022-10-31T12:00:37;101662.72;;;21.00;87.49
4449;BME280;2237;51.870;6.160;2022-10-31T12:03:14;101656.13;;;20.92;87.53
4449;BME280;2237;51.870;6.160;2022-10-31T12:05:44;101647.94;;;20.79;87.34
4449;BME280;2237;51.870;6.160;2022-10-31T12:08:13;101641.59;;;20.66;88.17
4449;BME280;2237;51.870;6.160;2022-10-31T12:13:32;101631.81;;;20.32;91.38
4449;BME280;2237;51.870;6.160;2022-10-31T12:31:04;101607.03;;;20.52;91.76
4449;BME280;2237;51.870;6.160;2022-10-31T12:33:47;101598.97;;;20.70;89.91
4449;BME280;2237;51.870;6.160;2022-10-31T12:50:02;101541.03;;;21.46;81.64
4449;BME280;2237;51.870;6.160;2022-10-31T12:57:50;101527.97;;;21.27;81.26
4449;BME280;2237;51.870;6.160;2022-10-31T13:00:19;101517.72;;;21.21;81.59
4449;BME280;2237;51.870;6.160;2022-10-31T13:03:09;101512.84;;;21.29;82.13
4449;BME280;2237;51.870;6.160;2022-10-31T13:05:43;101504.78;;;21.46;81.13
4449;BME280;2237;51.870;6.160;2022-10-31T13:08:15;101496.72;;;21.79;79.06
4449;BME280;2237;51.870;6.160;2022-10-31T13:10:45;101497.53;;;21.95;77.96
4449;BME280;2237;51.870;6.160;2022-10-31T13:13:38;101494.63;;;22.00;76.74
4449;BME280;2237;51.870;6.160;2022-10-31T13:16:15;101490.09;;;21.56;78.29
4449;BME280;2237;51.870;6.160;2022-10-31T13:18:53;101483.25;;;21.52;79.77
4449;BME280;2237;51.870;6.160;2022-10-31T13:21:25;101473.00;;;21.46;79.90
4449;BME280;2237;51.870;6.160;2022-10-31T13:23:54;101474.09;;;21.58;78.95
4449;BME280;2237;51.870;6.160;2022-10-31T13:26:37;101457.53;;;21.68;78.76
4449;BME280;2237;51.870;6.160;2022-10-31T13:31:41;101442.47;;;21.39;78.91
4449;BME280;2237;51.870;6.160;2022-10-31T13:34:34;101440.19;;;21.33;80.10
4449;BME280;2237;51.870;6.160;2022-10-31T13:40:13;101439.50;;;20.98;81.61
4449;BME280;2237;51.870;6.160;2022-10-31T13:45:21;101419.13;;;20.67;83.48
4449;BME280;2237;51.870;6.160;2022-10-31T13:47:59;101412.81;;;20.54;85.04
4449;BME280;2237;51.870;6.160;2022-10-31T13:50:30;101414.56;;;20.38;85.89
4449;BME280;2237;51.870;6.160;2022-10-31T13:53:19;101409.69;;;20.31;87.78
4449;BME280;2237;51.870;6.160;2022-10-31T13:56:13;101402.47;;;20.17;88.75
4449;BME280;2237;51.870;6.160;2022-10-31T13:58:34;101407.59;;;20.03;90.65
4449;BME280;2237;51.870;6.160;2022-10-31T14:03:38;101397.03;;;20.03;91.33
4449;BME280;2237;51.870;6.160;2022-10-31T14:06:42;101394.38;;;20.03;92.04
4449;BME280;2237;51.870;6.160;2022-10-31T14:12:31;101392.53;;;20.05;91.97
4449;BME280;2237;51.870;6.160;2022-10-31T14:15:21;101397.13;;;20.01;92.57
4449;BME280;2237;51.870;6.160;2022-10-31T14:17:57;101380.34;;;20.02;92.90
4449;BME280;2237;51.870;6.160;2022-10-31T14:20:38;101380.06;;;20.07;91.86
4449;BME280;2237;51.870;6.160;2022-10-31T14:26:30;101345.59;;;19.93;92.85
4449;BME280;2237;51.870;6.160;2022-10-31T14:28:59;101333.88;;;19.81;94.66
4449;BME280;2237;51.870;6.160;2022-10-31T14:31:38;101323.66;;;19.73;95.57
4449;BME280;2237;51.870;6.160;2022-10-31T14:39:21;101327.91;;;19.60;97.43
4449;BME280;2237;51.870;6.160;2022-10-31T14:42:03;101322.78;;;19.57;97.69
4449;BME280;2237;51.870;6.160;2022-10-31T14:50:29;101318.91;;;19.64;97.29
4449;BME280;2237;51.870;6.160;2022-10-31T14:53:02;101311.94;;;19.62;97.65
4449;BME280;2237;51.870;6.160;2022-10-31T14:55:30;101310.00;;;19.65;97.42
4449;BME280;2237;51.870;6.160;2022-10-31T14:58:01;101304.72;;;19.65;97.70
4449;BME280;2237;51.870;6.160;2022-10-31T15:00:31;101297.06;;;19.61;97.58
4449;BME280;2237;51.870;6.160;2022-10-31T15:03:15;101291.53;;;19.48;98.64
4449;BME280;2237;51.870;6.160;2022-10-31T15:05:47;101294.41;;;19.27;100.00
4449;BME280;2237;51.870;6.160;2022-10-31T15:11:25;101273.50;;;19.05;100.00
4449;BME280;2237;51.870;6.160;2022-10-31T15:13:55;101267.91;;;18.94;100.00
4449;BME280;2237;51.870;6.160;2022-10-31T15:16:35;101262.22;;;19.01;100.00
4449;BME280;2237;51.870;6.160;2022-10-31T15:19:06;101268.63;;;18.97;100.00
4449;BME280;2237;51.870;6.160;2022-10-31T15:21:35;101260.22;;;18.89;100.00
4449;BME280;2237;51.870;6.160;2022-10-31T15:24:02;101258.97;;;18.79;100.00
4449;BME280;2237;51.870;6.160;2022-10-31T15:26:35;101256.47;;;18.76;100.00
4449;BME280;2237;51.870;6.160;2022-10-31T15:29:05;101248.31;;;18.81;100.00
4449;BME280;2237;51.870;6.160;2022-10-31T15:31:37;101230.56;;;18.84;100.00